sensor_id;sensor_type;location;lat;lon;timestamp;pressure;altitude;pressure_sealevel;temperature;humidity
18850;BME280;4989;48.772;9.154;2024-01-10T00:01:11;98824.78;;;1.78;68.82
18850;BME280;4989;48.772;9.154;2024-01-10T00:06:14;98825.97;;;1.65;60.39
18850;BME280;4989;48.772;9.154;2024-01-10T00:11:17;98826.06;;;1.41;65.29
18850;BME280;4989;48.772;9.154;2024-01-10T00:16:20;98827.22;;;1.27;73.17
18850;BME280;4989;48.772;9.154;2024-01-10T00:21:22;98831.03;;;1.54;65.03
18850;BME280;4989;48.772;9.154;2024-01-10T00:26:25;98826.66;;;1.62;64.31
18850;BME280;4989;48.772;9.154;2024-01-10T00:31:28;98822.16;;;1.66;66.35
18850;BME280;4989;48.772;9.154;2024-01-10T00:36:31;98824.09;;;1.81;100.00
18850;BME280;4989;48.772;9.154;2024-01-10T00:41:33;98822.19;;;1.54;62.21
18850;BME280;4989;48.772;9.154;2024-01-10T00:46:36;98817.28;;;1.28;56.56
18850;BME280;4989;48.772;9.154;2024-01-10T00:51:39;98825.22;;;1.00;64.20
18850;BME280;4989;48.772;9.154;2024-01-10T00:56:41;98823.41;;;1.28;59.70
18850;BME280;4989;48.772;9.154;2024-01-10T01:01:44;98815.16;;;1.09;70.60
18850;BME280;4989;48.772;9.154;2024-01-10T01:06:47;98816.69;;;1.34;61.19
18850;BME280;4989;48.772;9.154;2024-01-10T01:11:49;98815.84;;;1.18;63.60
18850;BME280;4989;48.772;9.154;2024-01-10T01:16:52;98816.69;;;1.34;62.24
18850;BME280;4989;48.772;9.154;2024-01-10T01:21:55;98833.88;;;1.33;61.30
18850;BME280;4989;48.772;9.154;2024-01-10T01:26:57;98825.69;;;1.82;85.14
18850;BME280;4989;48.772;9.154;2024-01-10T01:32:00;98829.19;;;2.15;63.63
18850;BME280;4989;48.772;9.154;2024-01-10T01:37:03;98824.88;;;2.42;81.14
18850;BME280;4989;48.772;9.154;2024-01-10T01:42:06;98826.38;;;2.39;67.58
18850;BME280;4989;48.772;9.154;2024-01-10T01:47:09;98817.34;;;2.00;63.21
18850;BME280;4989;48.772;9.154;2024-01-10T01:52:13;98815.75;;;1.99;70.69
18850;BME280;4989;48.772;9.154;2024-01-10T01:57:15;98814.66;;;2.00;72.00
18850;BME280;4989;48.772;9.154;2024-01-10T02:02:19;98815.91;;;2.18;95.12
18850;BME280;4989;48.772;9.154;2024-01-10T02:07:22;98817.13;;;2.37;72.94
18850;BME280;4989;48.772;9.154;2024-01-10T02:12:25;98808.72;;;2.38;87.56
18850;BME280;4989;48.772;9.154;2024-01-10T02:17:28;98810.97;;;2.52;98.61
18850;BME280;4989;48.772;9.154;2024-01-10T02:22:31;98804.56;;;2.57;96.52
18850;BME280;4989;48.772;9.154;2024-01-10T02:27:37;98808.34;;;2.24;69.38
18850;BME280;4989;48.772;9.154;2024-01-10T02:32:41;98799.13;;;2.21;100.00
18850;BME280;4989;48.772;9.154;2024-01-10T02:37:44;98810.97;;;1.76;64.33
18850;BME280;4989;48.772;9.154;2024-01-10T02:42:47;98790.16;;;1.86;73.35
18850;BME280;4989;48.772;9.154;2024-01-10T02:47:50;98799.81;;;2.18;73.00
18850;BME280;4989;48.772;9.154;2024-01-10T02:52:52;98798.75;;;1.23;61.27
18850;BME280;4989;48.772;9.154;2024-01-10T02:57:55;98787.75;;;1.00;64.51
18850;BME280;4989;48.772;9.154;2024-01-10T03:02:58;98801.47;;;1.10;65.12
18850;BME280;4989;48.772;9.154;2024-01-10T03:08:00;98789.41;;;1.17;64.64
18850;BME280;4989;48.772;9.154;2024-01-10T03:13:04;98789.44;;;1.45;63.45
18850;BME280;4989;48.772;9.154;2024-01-10T03:18:07;98772.38;;;1.65;68.25
18850;BME280;4989;48.772;9.154;2024-01-10T03:23:10;98767.41;;;1.79;65.11
18850;BME280;4989;48.772;9.154;2024-01-10T03:28:16;98773.09;;;1.78;69.26
18850;BME280;4989;48.772;9.154;2024-01-10T03:33:19;98767.63;;;1.30;63.70
18850;BME280;4989;48.772;9.154;2024-01-10T03:38:22;98768.97;;;0.72;66.13
18850;BME280;4989;48.772;9.154;2024-01-10T03:43:25;98778.88;;;0.71;61.07
18850;BME280;4989;48.772;9.154;2024-01-10T03:48:27;98767.94;;;0.88;68.74
18850;BME280;4989;48.772;9.154;2024-01-10T03:53:30;98772.81;;;0.99;65.27
18850;BME280;4989;48.772;9.154;2024-01-10T03:58:33;98781.19;;;-0.88;62.39
18850;BME280;4989;48.772;9.154;2024-01-10T04:03:36;98779.75;;;-0.65;66.42
18850;BME280;4989;48.772;9.154;2024-01-10T04:08:39;98778.41;;;0.08;75.30
18850;BME280;4989;48.772;9.154;2024-01-10T04:13:42;98775.88;;;0.73;90.17
18850;BME280;4989;48.772;9.154;2024-01-10T04:18:44;98788.56;;;1.00;69.33
18850;BME280;4989;48.772;9.154;2024-01-10T04:23:47;98783.56;;;0.86;63.75
18850;BME280;4989;48.772;9.154;2024-01-10T04:28:50;98793.66;;;-0.05;60.92
18850;BME280;4989;48.772;9.154;2024-01-10T04:33:53;98788.03;;;-0.46;61.95
18850;BME280;4989;48.772;9.154;2024-01-10T04:38:55;98780.63;;;-0.61;62.05
18850;BME280;4989;48.772;9.154;2024-01-10T04:43:58;98779.03;;;-0.53;62.89
18850;BME280;4989;48.772;9.154;2024-01-10T04:49:01;98771.06;;;0.05;63.48
18850;BME280;4989;48.772;9.154;2024-01-10T04:54:03;98765.72;;;0.78;80.59
18850;BME280;4989;48.772;9.154;2024-01-10T04:59:06;98773.88;;;0.82;86.18
18850;BME280;4989;48.772;9.154;2024-01-10T05:04:09;98769.44;;;0.61;63.06
18850;BME280;4989;48.772;9.154;2024-01-10T05:09:12;98783.13;;;0.60;63.58
18850;BME280;4989;48.772;9.154;2024-01-10T05:14:15;98784.19;;;-0.03;78.75
18850;BME280;4989;48.772;9.154;2024-01-10T05:19:17;98788.00;;;0.21;72.43
18850;BME280;4989;48.772;9.154;2024-01-10T05:24:20;98783.00;;;-0.59;64.02
18850;BME280;4989;48.772;9.154;2024-01-10T05:29:23;98788.78;;;0.09;72.78
18850;BME280;4989;48.772;9.154;2024-01-10T05:34:27;98779.47;;;0.64;99.00
18850;BME280;4989;48.772;9.154;2024-01-10T05:39:29;98781.28;;;0.03;67.24
18850;BME280;4989;48.772;9.154;2024-01-10T05:44:33;98780.34;;;0.44;82.44
18850;BME280;4989;48.772;9.154;2024-01-10T05:49:36;98778.72;;;1.04;76.56
18850;BME280;4989;48.772;9.154;2024-01-10T05:54:39;98784.56;;;0.82;73.22
18850;BME280;4989;48.772;9.154;2024-01-10T05:59:42;98789.13;;;0.57;68.75
18850;BME280;4989;48.772;9.154;2024-01-10T06:04:45;98793.59;;;-0.51;68.72
18850;BME280;4989;48.772;9.154;2024-01-10T06:09:48;98795.16;;;-1.80;74.05
18850;BME280;4989;48.772;9.154;2024-01-10T06:14:50;98798.22;;;-1.61;75.05
18850;BME280;4989;48.772;9.154;2024-01-10T06:19:53;98793.97;;;-1.53;75.49
18850;BME280;4989;48.772;9.154;2024-01-10T06:24:56;98798.88;;;-1.05;75.01
18850;BME280;4989;48.772;9.154;2024-01-10T06:29:59;98788.78;;;-1.50;70.46
18850;BME280;4989;48.772;9.154;2024-01-10T06:35:02;98783.66;;;-1.64;77.62
18850;BME280;4989;48.772;9.154;2024-01-10T06:40:05;98795.56;;;-1.31;74.08
18850;BME280;4989;48.772;9.154;2024-01-10T06:45:09;98808.84;;;-1.52;71.74
18850;BME280;4989;48.772;9.154;2024-01-10T06:50:12;98810.50;;;-1.77;74.81
18850;BME280;4989;48.772;9.154;2024-01-10T06:55:15;98808.00;;;-1.82;74.18
18850;BME280;4989;48.772;9.154;2024-01-10T07:00:21;98799.75;;;-1.90;76.57
18850;BME280;4989;48.772;9.154;2024-01-10T07:05:24;98811.19;;;-1.98;75.18
18850;BME280;4989;48.772;9.154;2024-01-10T07:10:27;98806.31;;;-1.49;81.40
18850;BME280;4989;48.772;9.154;2024-01-10T07:15:31;98816.19;;;-0.69;77.63
18850;BME280;4989;48.772;9.154;2024-01-10T07:20:33;98813.22;;;-1.48;73.97
18850;BME280;4989;48.772;9.154;2024-01-10T07:25:36;98812.94;;;-0.54;91.13
18850;BME280;4989;48.772;9.154;2024-01-10T07:30:39;98819.44;;;-1.05;75.71
18850;BME280;4989;48.772;9.154;2024-01-10T07:35:42;98821.56;;;-1.58;78.21
18850;BME280;4989;48.772;9.154;2024-01-10T07:40:45;98829.56;;;-1.58;100.00
18850;BME280;4989;48.772;9.154;2024-01-10T07:45:47;98840.34;;;-0.86;86.97
18850;BME280;4989;48.772;9.154;2024-01-10T07:50:50;98848.31;;;-1.84;77.70
18850;BME280;4989;48.772;9.154;2024-01-10T07:55:53;98845.03;;;-1.13;100.00
18850;BME280;4989;48.772;9.154;2024-01-10T08:00:55;98853.69;;;-1.54;93.85
18850;BME280;4989;48.772;9.154;2024-01-10T08:05:58;98851.25;;;-1.30;75.69
18850;BME280;4989;48.772;9.154;2024-01-10T08:11:01;98858.69;;;-1.53;74.38
18850;BME280;4989;48.772;9.154;2024-01-10T08:16:04;98862.75;;;-2.11;77.64
18850;BME280;4989;48.772;9.154;2024-01-10T08:21:07;98863.66;;;-1.90;76.89
18850;BME280;4989;48.772;9.154;2024-01-10T08:26:10;98864.16;;;-1.49;78.33
18850;BME280;4989;48.772;9.154;2024-01-10T08:31:16;98876.03;;;-1.94;77.71
18850;BME280;4989;48.772;9.154;2024-01-10T08:36:18;98867.31;;;-1.47;77.24
18850;BME280;4989;48.772;9.154;2024-01-10T08:41:21;98873.13;;;-1.16;74.26
18850;BME280;4989;48.772;9.154;2024-01-10T08:46:24;98881.69;;;-0.51;70.71
18850;BME280;4989;48.772;9.154;2024-01-10T08:51:29;98886.06;;;-0.97;72.11
18850;BME280;4989;48.772;9.154;2024-01-10T08:56:32;98878.34;;;-0.68;73.03
18850;BME280;4989;48.772;9.154;2024-01-10T09:01:35;98889.09;;;0.52;68.38
18850;BME280;4989;48.772;9.154;2024-01-10T09:06:39;98893.09;;;-0.20;67.21
18850;BME280;4989;48.772;9.154;2024-01-10T09:11:45;98889.47;;;-0.87;70.33
18850;BME280;4989;48.772;9.154;2024-01-10T09:16:48;98890.31;;;-1.04;72.08
18850;BME280;4989;48.772;9.154;2024-01-10T09:21:51;98899.06;;;-1.33;73.10
18850;BME280;4989;48.772;9.154;2024-01-10T09:26:54;98899.09;;;-1.04;74.56
18850;BME280;4989;48.772;9.154;2024-01-10T09:31:57;98902.75;;;-0.58;71.61
18850;BME280;4989;48.772;9.154;2024-01-10T09:36:59;98900.97;;;-0.24;70.10
18850;BME280;4989;48.772;9.154;2024-01-10T09:42:04;98908.75;;;-0.61;72.70
18850;BME280;4989;48.772;9.154;2024-01-10T09:47:09;98911.72;;;-0.12;70.18
18850;BME280;4989;48.772;9.154;2024-01-10T09:52:27;98914.50;;;-1.09;74.49
18850;BME280;4989;48.772;9.154;2024-01-10T09:57:30;98909.44;;;-1.41;76.08
18850;BME280;4989;48.772;9.154;2024-01-10T10:02:34;98907.53;;;-1.31;76.67
18850;BME280;4989;48.772;9.154;2024-01-10T10:12:51;98892.53;;;0.53;68.80
18850;BME280;4989;48.772;9.154;2024-01-10T10:17:57;98894.38;;;0.73;67.04
18850;BME280;4989;48.772;9.154;2024-01-10T10:23:04;98885.44;;;0.81;69.21
18850;BME280;4989;48.772;9.154;2024-01-10T10:28:08;98883.19;;;1.20;66.20
18850;BME280;4989;48.772;9.154;2024-01-10T10:33:26;98893.88;;;0.59;69.71
18850;BME280;4989;48.772;9.154;2024-01-10T10:38:29;98889.69;;;0.82;68.11
18850;BME280;4989;48.772;9.154;2024-01-10T10:43:34;98887.44;;;0.72;70.81
18850;BME280;4989;48.772;9.154;2024-01-10T10:48:40;98887.44;;;0.72;70.16
18850;BME280;4989;48.772;9.154;2024-01-10T10:53:43;98881.22;;;0.93;72.21
18850;BME280;4989;48.772;9.154;2024-01-10T10:58:48;98884.75;;;0.97;70.55
18850;BME280;4989;48.772;9.154;2024-01-10T11:03:51;98888.09;;;1.43;68.21
18850;BME280;4989;48.772;9.154;2024-01-10T11:09:01;98882.09;;;1.33;69.11
18850;BME280;4989;48.772;9.154;2024-01-10T11:14:09;98872.69;;;3.35;63.46
18850;BME280;4989;48.772;9.154;2024-01-10T11:19:49;98870.16;;;5.12;57.49
18850;BME280;4989;48.772;9.154;2024-01-10T11:24:58;98870.72;;;6.59;51.85
18850;BME280;4989;48.772;9.154;2024-01-10T11:30:04;98860.03;;;7.25;49.31
18850;BME280;4989;48.772;9.154;2024-01-10T11:35:20;98876.34;;;6.03;51.00
18850;BME280;4989;48.772;9.154;2024-01-10T11:41:02;98873.06;;;7.05;49.04
18850;BME280;4989;48.772;9.154;2024-01-10T11:46:06;98859.72;;;9.32;44.65
18850;BME280;4989;48.772;9.154;2024-01-10T11:51:09;98851.16;;;10.88;40.03
18850;BME280;4989;48.772;9.154;2024-01-10T11:56:14;98856.75;;;12.72;36.87
18850;BME280;4989;48.772;9.154;2024-01-10T12:01:35;98859.06;;;13.44;35.70
18850;BME280;4989;48.772;9.154;2024-01-10T12:06:39;98856.41;;;11.85;37.12
18850;BME280;4989;48.772;9.154;2024-01-10T12:11:42;98861.44;;;10.66;39.54
18850;BME280;4989;48.772;9.154;2024-01-10T12:16:44;98862.09;;;8.87;42.83
18850;BME280;4989;48.772;9.154;2024-01-10T12:21:49;98851.31;;;11.53;38.73
18850;BME280;4989;48.772;9.154;2024-01-10T12:26:51;98847.38;;;12.19;37.38
18850;BME280;4989;48.772;9.154;2024-01-10T12:31:55;98839.94;;;9.32;42.10
18850;BME280;4989;48.772;9.154;2024-01-10T12:36:58;98852.75;;;9.24;41.96
18850;BME280;4989;48.772;9.154;2024-01-10T12:42:02;98852.31;;;7.20;46.04
18850;BME280;4989;48.772;9.154;2024-01-10T12:47:04;98845.75;;;5.91;48.97
18850;BME280;4989;48.772;9.154;2024-01-10T12:52:09;98849.34;;;4.17;53.53
18850;BME280;4989;48.772;9.154;2024-01-10T12:57:17;98851.09;;;2.17;60.98
18850;BME280;4989;48.772;9.154;2024-01-10T13:02:20;98848.06;;;1.62;63.60
18850;BME280;4989;48.772;9.154;2024-01-10T13:07:24;98854.66;;;1.65;64.21
18850;BME280;4989;48.772;9.154;2024-01-10T13:12:28;98844.56;;;2.02;62.91
18850;BME280;4989;48.772;9.154;2024-01-10T13:17:31;98840.84;;;2.66;61.64
18850;BME280;4989;48.772;9.154;2024-01-10T13:22:33;98838.53;;;2.21;62.44
18850;BME280;4989;48.772;9.154;2024-01-10T13:27:36;98829.72;;;2.20;62.83
18850;BME280;4989;48.772;9.154;2024-01-10T13:32:39;98837.91;;;3.07;61.08
18850;BME280;4989;48.772;9.154;2024-01-10T13:37:42;98836.53;;;3.13;60.82
18850;BME280;4989;48.772;9.154;2024-01-10T13:42:45;98837.22;;;3.45;61.39
18850;BME280;4989;48.772;9.154;2024-01-10T13:47:48;98841.31;;;3.78;75.78
18850;BME280;4989;48.772;9.154;2024-01-10T13:52:54;98852.63;;;3.87;70.42
18850;BME280;4989;48.772;9.154;2024-01-10T13:57:56;98841.81;;;4.26;60.98
18850;BME280;4989;48.772;9.154;2024-01-10T14:02:59;98849.72;;;4.38;62.19
18850;BME280;4989;48.772;9.154;2024-01-10T14:08:02;98845.47;;;4.37;66.94
18850;BME280;4989;48.772;9.154;2024-01-10T14:13:05;98844.59;;;4.52;66.89
18850;BME280;4989;48.772;9.154;2024-01-10T14:18:08;98849.34;;;4.17;63.35
18850;BME280;4989;48.772;9.154;2024-01-10T14:23:11;98843.38;;;4.73;77.74
18850;BME280;4989;48.772;9.154;2024-01-10T14:28:14;98847.91;;;4.69;63.30
18850;BME280;4989;48.772;9.154;2024-01-10T14:33:16;98852.66;;;4.75;68.63
18850;BME280;4989;48.772;9.154;2024-01-10T14:38:19;98854.00;;;4.66;77.33
18850;BME280;4989;48.772;9.154;2024-01-10T14:43:22;98855.69;;;4.74;67.77
18850;BME280;4989;48.772;9.154;2024-01-10T14:48:25;98859.72;;;4.61;66.79
18850;BME280;4989;48.772;9.154;2024-01-10T14:53:28;98852.38;;;4.57;68.13
18850;BME280;4989;48.772;9.154;2024-01-10T14:58:30;98861.56;;;4.56;64.33
18850;BME280;4989;48.772;9.154;2024-01-10T15:03:33;98859.91;;;4.48;65.02
18850;BME280;4989;48.772;9.154;2024-01-10T15:08:36;98866.22;;;3.94;67.59
18850;BME280;4989;48.772;9.154;2024-01-10T15:13:41;98859.81;;;4.22;70.39
18850;BME280;4989;48.772;9.154;2024-01-10T15:18:45;98870.19;;;4.00;64.85
18850;BME280;4989;48.772;9.154;2024-01-10T15:23:48;98868.53;;;4.15;69.16
18850;BME280;4989;48.772;9.154;2024-01-10T15:28:51;98868.97;;;4.40;64.19
18850;BME280;4989;48.772;9.154;2024-01-10T15:33:56;98881.94;;;4.34;66.93
18850;BME280;4989;48.772;9.154;2024-01-10T15:38:59;98881.53;;;4.55;62.55
18850;BME280;4989;48.772;9.154;2024-01-10T15:44:02;98886.66;;;3.99;76.58
18850;BME280;4989;48.772;9.154;2024-01-10T15:49:05;98899.03;;;3.64;68.34
18850;BME280;4989;48.772;9.154;2024-01-10T15:54:10;98900.91;;;3.44;93.24
18850;BME280;4989;48.772;9.154;2024-01-10T15:59:13;98894.59;;;3.37;75.47
18850;BME280;4989;48.772;9.154;2024-01-10T16:04:18;98904.34;;;3.10;95.93
18850;BME280;4989;48.772;9.154;2024-01-10T16:09:21;98913.16;;;2.47;85.28
18850;BME280;4989;48.772;9.154;2024-01-10T16:14:24;98910.00;;;2.73;100.00
18850;BME280;4989;48.772;9.154;2024-01-10T16:19:27;98905.47;;;3.25;100.00
18850;BME280;4989;48.772;9.154;2024-01-10T16:24:30;98907.81;;;3.10;88.25
18850;BME280;4989;48.772;9.154;2024-01-10T16:29:33;98913.00;;;2.40;72.95
18850;BME280;4989;48.772;9.154;2024-01-10T16:34:36;98911.22;;;1.75;82.42
18850;BME280;4989;48.772;9.154;2024-01-10T16:39:40;98909.72;;;1.50;84.18
18850;BME280;4989;48.772;9.154;2024-01-10T16:44:43;98908.84;;;2.14;100.00
18850;BME280;4989;48.772;9.154;2024-01-10T16:49:46;98916.38;;;2.68;93.08
18850;BME280;4989;48.772;9.154;2024-01-10T16:54:49;98915.13;;;2.34;100.00
18850;BME280;4989;48.772;9.154;2024-01-10T16:59:52;98906.94;;;2.74;100.00
18850;BME280;4989;48.772;9.154;2024-01-10T17:04:54;98912.41;;;2.18;100.00
18850;BME280;4989;48.772;9.154;2024-01-10T17:09:57;98918.00;;;2.57;100.00
18850;BME280;4989;48.772;9.154;2024-01-10T17:15:00;98919.03;;;2.37;96.86
18850;BME280;4989;48.772;9.154;2024-01-10T17:20:04;98925.94;;;2.38;100.00
18850;BME280;4989;48.772;9.154;2024-01-10T17:25:07;98926.97;;;2.77;100.00
18850;BME280;4989;48.772;9.154;2024-01-10T17:30:14;98927.19;;;1.72;82.19
18850;BME280;4989;48.772;9.154;2024-01-10T17:35:17;98924.94;;;2.58;100.00
18850;BME280;4989;48.772;9.154;2024-01-10T17:40:20;98931.28;;;2.97;100.00
18850;BME280;4989;48.772;9.154;2024-01-10T17:45:22;98931.34;;;3.33;94.78
18850;BME280;4989;48.772;9.154;2024-01-10T17:50:25;98937.78;;;2.81;100.00
18850;BME280;4989;48.772;9.154;2024-01-10T17:55:28;98932.78;;;2.35;100.00
18850;BME280;4989;48.772;9.154;2024-01-10T18:00:31;98937.16;;;1.99;100.00
18850;BME280;4989;48.772;9.154;2024-01-10T18:05:34;98930.75;;;2.16;98.50
18850;BME280;4989;48.772;9.154;2024-01-10T18:10:41;98927.63;;;2.14;91.38
18850;BME280;4989;48.772;9.154;2024-01-10T18:15:44;98929.25;;;2.47;100.00
18850;BME280;4989;48.772;9.154;2024-01-10T18:20:47;98935.69;;;1.74;89.86
18850;BME280;4989;48.772;9.154;2024-01-10T18:25:49;98936.94;;;0.90;100.00
18850;BME280;4989;48.772;9.154;2024-01-10T18:30:52;98938.31;;;1.21;97.83
18850;BME280;4989;48.772;9.154;2024-01-10T18:35:57;98935.50;;;1.95;100.00
18850;BME280;4989;48.772;9.154;2024-01-10T18:41:00;98930.56;;;2.09;100.00
18850;BME280;4989;48.772;9.154;2024-01-10T18:46:03;98935.97;;;1.84;92.18
18850;BME280;4989;48.772;9.154;2024-01-10T18:51:06;98937.88;;;2.24;87.78
18850;BME280;4989;48.772;9.154;2024-01-10T18:56:08;98945.81;;;1.80;100.00
18850;BME280;4989;48.772;9.154;2024-01-10T19:01:11;98946.66;;;2.09;100.00
18850;BME280;4989;48.772;9.154;2024-01-10T19:06:14;98945.16;;;2.40;100.00
18850;BME280;4989;48.772;9.154;2024-01-10T19:11:17;98943.63;;;1.09;88.30
18850;BME280;4989;48.772;9.154;2024-01-10T19:16:21;98947.41;;;1.57;100.00
18850;BME280;4989;48.772;9.154;2024-01-10T19:21:23;98946.22;;;1.95;94.17
18850;BME280;4989;48.772;9.154;2024-01-10T19:26:26;98951.38;;;2.00;100.00
18850;BME280;4989;48.772;9.154;2024-01-10T19:31:29;98949.16;;;1.90;100.00
18850;BME280;4989;48.772;9.154;2024-01-10T19:36:32;98943.22;;;2.24;100.00
18850;BME280;4989;48.772;9.154;2024-01-10T19:41:35;98939.16;;;2.74;100.00
18850;BME280;4989;48.772;9.154;2024-01-10T19:46:38;98944.97;;;2.33;93.27
18850;BME280;4989;48.772;9.154;2024-01-10T19:51:41;98934.69;;;2.79;100.00
18850;BME280;4989;48.772;9.154;2024-01-10T19:56:44;98939.94;;;3.07;100.00
18850;BME280;4989;48.772;9.154;2024-01-10T20:01:47;98942.38;;;3.12;100.00
18850;BME280;4989;48.772;9.154;2024-01-10T20:06:49;98939.91;;;2.15;84.98
18850;BME280;4989;48.772;9.154;2024-01-10T20:11:52;98942.03;;;0.59;88.65
18850;BME280;4989;48.772;9.154;2024-01-10T20:16:55;98948.22;;;1.33;100.00
18850;BME280;4989;48.772;9.154;2024-01-10T20:21:58;98951.88;;;2.05;100.00
18850;BME280;4989;48.772;9.154;2024-01-10T20:27:00;98954.69;;;2.37;94.82
18850;BME280;4989;48.772;9.154;2024-01-10T20:32:03;98953.91;;;1.07;89.32
18850;BME280;4989;48.772;9.154;2024-01-10T20:37:09;98943.97;;;0.83;100.00
18850;BME280;4989;48.772;9.154;2024-01-10T20:42:11;98945.69;;;1.89;100.00
18850;BME280;4989;48.772;9.154;2024-01-10T20:47:15;98950.56;;;2.56;100.00
18850;BME280;4989;48.772;9.154;2024-01-10T20:52:20;98949.22;;;3.09;100.00
18850;BME280;4989;48.772;9.154;2024-01-10T20:57:23;98951.13;;;2.93;100.00
18850;BME280;4989;48.772;9.154;2024-01-10T21:02:27;98944.59;;;2.18;100.00
18850;BME280;4989;48.772;9.154;2024-01-10T21:07:29;98950.22;;;2.57;100.00
18850;BME280;4989;48.772;9.154;2024-01-10T21:12:32;98945.72;;;1.77;100.00
18850;BME280;4989;48.772;9.154;2024-01-10T21:17:35;98944.16;;;2.16;100.00
18850;BME280;4989;48.772;9.154;2024-01-10T21:22:38;98948.34;;;2.73;100.00
18850;BME280;4989;48.772;9.154;2024-01-10T21:27:41;98956.47;;;2.93;100.00
18850;BME280;4989;48.772;9.154;2024-01-10T21:32:44;98960.25;;;1.27;87.84
18850;BME280;4989;48.772;9.154;2024-01-10T21:37:47;98949.31;;;2.09;100.00
18850;BME280;4989;48.772;9.154;2024-01-10T21:42:50;98943.78;;;1.90;100.00
18850;BME280;4989;48.772;9.154;2024-01-10T21:47:53;98940.53;;;1.31;100.00
18850;BME280;4989;48.772;9.154;2024-01-10T21:52:56;98934.88;;;2.42;100.00
18850;BME280;4989;48.772;9.154;2024-01-10T21:57:58;98943.16;;;2.81;100.00
18850;BME280;4989;48.772;9.154;2024-01-10T22:03:02;98942.97;;;3.05;100.00
18850;BME280;4989;48.772;9.154;2024-01-10T22:08:05;98951.25;;;1.96;96.07
18850;BME280;4989;48.772;9.154;2024-01-10T22:13:10;98958.16;;;1.08;91.20
18850;BME280;4989;48.772;9.154;2024-01-10T22:18:13;98954.81;;;1.23;100.00
18850;BME280;4989;48.772;9.154;2024-01-10T22:23:15;98967.50;;;2.16;100.00
18850;BME280;4989;48.772;9.154;2024-01-10T22:28:18;98966.50;;;2.08;100.00
18850;BME280;4989;48.772;9.154;2024-01-10T22:33:21;98966.84;;;1.05;100.00
18850;BME280;4989;48.772;9.154;2024-01-10T22:38:25;98972.09;;;0.22;100.00
18850;BME280;4989;48.772;9.154;2024-01-10T22:43:28;98970.09;;;0.53;100.00
18850;BME280;4989;48.772;9.154;2024-01-10T22:48:31;98968.19;;;1.35;100.00
18850;BME280;4989;48.772;9.154;2024-01-10T22:53:42;98964.59;;;1.68;100.00
18850;BME280;4989;48.772;9.154;2024-01-10T22:58:45;98973.53;;;1.60;100.00
18850;BME280;4989;48.772;9.154;2024-01-10T23:03:47;98969.84;;;1.77;100.00
18850;BME280;4989;48.772;9.154;2024-01-10T23:08:50;98968.25;;;1.88;100.00
18850;BME280;4989;48.772;9.154;2024-01-10T23:13:53;98971.31;;;1.62;100.00
18850;BME280;4989;48.772;9.154;2024-01-10T23:18:55;98976.88;;;1.69;100.00
18850;BME280;4989;48.772;9.154;2024-01-10T23:23:59;98963.66;;;0.66;100.00
18850;BME280;4989;48.772;9.154;2024-01-10T23:29:02;98953.34;;;1.01;100.00
18850;BME280;4989;48.772;9.154;2024-01-10T23:34:05;98957.47;;;1.60;100.00
18850;BME280;4989;48.772;9.154;2024-01-10T23:39:10;98955.28;;;1.90;100.00
18850;BME280;4989;48.772;9.154;2024-01-10T23:44:13;98946.72;;;2.41;100.00
18850;BME280;4989;48.772;9.154;2024-01-10T23:49:16;98945.28;;;2.15;100.00
18850;BME280;4989;48.772;9.154;2024-01-10T23:54:19;98948.66;;;1.47;100.00
18850;BME280;4989;48.772;9.154;2024-01-10T23:59:22;98939.75;;;1.19;100.00
